TimeCDT,TemperatureF,Dew PointF,Humidity,Sea Level PressureIn,VisibilityMPH,Wind Direction,Wind SpeedMPH,Gust SpeedMPH,PrecipitationIn,Events,Conditions,WindDirDegrees,DateUTC
12:15 AM,40.8,38.3,91,29.60,10.0,West,9.2,-,N/A,,Clear,280,2013-11-01 05:15:00
12:35 AM,39.6,37.8,93,29.60,10.0,WNW,5.8,-,N/A,,Clear,290,2013-11-01 05:35:00
12:55 AM,39.4,38.1,95,29.60,10.0,WNW,6.9,-,N/A,,Scattered Clouds,290,2013-11-01 05:55:00
1:15 AM,40.6,39.4,95,29.60,10.0,West,6.9,-,N/A,,Scattered Clouds,280,2013-11-01 06:15:00
1:35 AM,42.8,40.1,90,29.60,10.0,West,10.4,-,N/A,,Clear,270,2013-11-01 06:35:00
1:55 AM,44.1,40.3,87,29.61,10.0,West,12.7,-,N/A,,Clear,270,2013-11-01 06:55:00
2:15 AM,43.9,40.1,87,29.62,10.0,West,10.4,-,N/A,,Clear,280,2013-11-01 07:15:00
2:35 AM,43.9,40.1,87,29.63,10.0,West,10.4,-,N/A,,Clear,280,2013-11-01 07:35:00
2:55 AM,43.0,39.6,88,29.63,10.0,WNW,12.7,-,N/A,,Clear,290,2013-11-01 07:55:00
3:15 AM,42.6,39.4,88,29.63,10.0,West,13.8,-,N/A,,Clear,270,2013-11-01 08:15:00
3:35 AM,42.1,39.2,90,29.64,10.0,West,11.5,-,N/A,,Clear,280,2013-11-01 08:35:00
3:55 AM,41.9,38.7,88,29.65,10.0,West,11.5,-,N/A,,Clear,270,2013-11-01 08:55:00
4:15 AM,40.6,38.3,91,29.65,10.0,West,9.2,-,N/A,,Clear,280,2013-11-01 09:15:00
4:35 AM,38.8,37.8,96,29.67,10.0,West,8.1,-,N/A,,Clear,280,2013-11-01 09:35:00
4:55 AM,39.2,37.8,95,29.67,10.0,West,6.9,-,N/A,,Clear,280,2013-11-01 09:55:00
5:15 AM,37.2,36.5,97,29.68,10.0,WNW,4.6,-,N/A,,Clear,300,2013-11-01 10:15:00
5:35 AM,35.1,35.1,100,29.68,10.0,WNW,4.6,-,N/A,,Clear,290,2013-11-01 10:35:00
5:55 AM,35.6,35.6,100,29.69,10.0,West,6.9,-,N/A,,Clear,270,2013-11-01 10:55:00
6:15 AM,37.6,37.2,99,29.70,10.0,West,5.8,-,N/A,,Scattered Clouds,270,2013-11-01 11:15:00
6:35 AM,38.3,37.4,97,29.70,10.0,West,6.9,-,N/A,,Scattered Clouds,270,2013-11-01 11:35:00
6:55 AM,38.7,37.8,97,29.71,10.0,West,8.1,-,N/A,,Scattered Clouds,280,2013-11-01 11:55:00
7:15 AM,39.6,38.5,96,29.72,10.0,West,8.1,-,N/A,,Clear,270,2013-11-01 12:15:00
7:35 AM,41.4,39.2,92,29.72,10.0,West,9.2,-,N/A,,Clear,280,2013-11-01 12:35:00
7:55 AM,41.7,39.2,91,29.73,10.0,West,8.1,-,N/A,,Clear,270,2013-11-01 12:55:00
8:15 AM,42.3,39.0,88,29.74,10.0,West,9.2,-,N/A,,Scattered Clouds,270,2013-11-01 13:15:00
8:35 AM,42.3,39.2,89,29.74,10.0,West,10.4,-,N/A,,Clear,270,2013-11-01 13:35:00
8:55 AM,43.5,40.1,88,29.75,10.0,West,8.1,-,N/A,,Clear,270,2013-11-01 13:55:00
9:15 AM,44.4,40.8,87,29.77,10.0,West,8.1,-,N/A,,Clear,270,2013-11-01 14:15:00
9:35 AM,46.0,41.2,83,29.77,10.0,West,10.4,-,N/A,,Clear,280,2013-11-01 14:35:00
9:55 AM,46.9,41.9,83,29.78,10.0,West,10.4,-,N/A,,Clear,280,2013-11-01 14:55:00
10:15 AM,48.0,42.8,82,29.79,10.0,West,15.0,-,N/A,,Clear,280,2013-11-01 15:15:00
10:35 AM,48.9,43.5,82,29.79,10.0,West,10.4,-,N/A,,Mostly Cloudy,280,2013-11-01 15:35:00
10:55 AM,50.2,43.7,78,29.79,10.0,WNW,13.8,-,N/A,,Scattered Clouds,300,2013-11-01 15:55:00
11:15 AM,52.7,43.2,70,29.80,10.0,WNW,18.4,24.2,N/A,,Clear,300,2013-11-01 16:15:00
11:35 AM,54.1,41.9,63,29.81,10.0,WNW,19.6,26.5,N/A,,Clear,300,2013-11-01 16:35:00
11:55 AM,55.6,41.5,59,29.81,10.0,WNW,24.2,29.9,N/A,,Clear,300,2013-11-01 16:55:00
12:15 PM,55.9,40.5,56,29.82,10.0,WNW,23.0,28.8,N/A,,Clear,300,2013-11-01 17:15:00
12:35 PM,56.5,40.8,56,29.82,10.0,NW,24.2,29.9,N/A,,Clear,320,2013-11-01 17:35:00
12:55 PM,57.6,41.4,55,29.82,10.0,NW,21.9,25.3,N/A,,Clear,310,2013-11-01 17:55:00
1:15 PM,57.9,41.0,53,29.82,10.0,NW,20.7,24.2,N/A,,Clear,310,2013-11-01 18:15:00
1:35 PM,57.7,40.8,53,29.82,10.0,NW,17.3,26.5,N/A,,Scattered Clouds,310,2013-11-01 18:35:00
1:55 PM,57.6,39.2,50,29.81,10.0,NW,21.9,28.8,N/A,,Scattered Clouds,310,2013-11-01 18:55:00
2:15 PM,58.8,38.5,47,29.81,10.0,NW,19.6,24.2,N/A,,Clear,310,2013-11-01 19:15:00
2:35 PM,59.2,37.9,45,29.81,10.0,WNW,16.1,25.3,N/A,,Mostly Cloudy,300,2013-11-01 19:35:00
2:55 PM,59.5,38.3,45,29.81,10.0,NW,17.3,25.3,N/A,,Mostly Cloudy,320,2013-11-01 19:55:00
3:15 PM,60.3,38.1,44,29.81,10.0,WNW,20.7,26.5,N/A,,Mostly Cloudy,290,2013-11-01 20:15:00
4:55 PM,46.9,41.9,83,29.87,5.0,NW,27.6,43.7,0.01,Rain,Rain,310,2013-11-01 21:55:00
5:15 PM,49.1,43.7,82,29.88,7.0,WNW,19.6,28.8,0.01,Rain,Light Rain,290,2013-11-01 22:15:00
5:35 PM,47.7,43.0,84,29.87,10.0,WNW,15.0,-,0.01,,Scattered Clouds,290,2013-11-01 22:35:00
5:55 PM,47.5,43.0,84,29.88,10.0,WNW,18.4,-,0.01,,Scattered Clouds,290,2013-11-01 22:55:00
6:15 PM,46.6,42.3,85,29.89,10.0,WNW,15.0,-,N/A,,Scattered Clouds,290,2013-11-01 23:15:00
6:35 PM,46.2,42.1,85,29.89,10.0,WNW,13.8,-,N/A,,Clear,290,2013-11-01 23:35:00
6:55 PM,45.9,42.3,87,29.90,10.0,West,12.7,-,N/A,,Clear,280,2013-11-01 23:55:00
7:15 PM,45.5,42.1,88,29.92,10.0,West,11.5,-,N/A,,Scattered Clouds,280,2013-11-02 00:15:00
7:35 PM,46.0,42.1,86,29.93,10.0,WNW,11.5,17.3,N/A,,Mostly Cloudy,290,2013-11-02 00:35:00
7:55 PM,46.0,41.9,85,29.94,10.0,WNW,11.5,-,N/A,,Overcast,290,2013-11-02 00:55:00
8:15 PM,46.4,41.2,82,29.95,10.0,NW,15.0,-,N/A,,Overcast,310,2013-11-02 01:15:00
8:35 PM,45.7,41.5,85,29.95,10.0,WNW,9.2,-,N/A,,Overcast,300,2013-11-02 01:35:00
8:55 PM,45.0,41.2,87,29.96,10.0,WNW,13.8,18.4,N/A,,Overcast,290,2013-11-02 01:55:00
9:15 PM,45.5,41.7,87,29.96,10.0,NW,17.3,25.3,N/A,,Overcast,310,2013-11-02 02:15:00
9:35 PM,45.5,41.9,87,29.97,10.0,WNW,13.8,18.4,N/A,,Overcast,300,2013-11-02 02:35:00
9:55 PM,45.5,42.1,88,29.98,10.0,WNW,15.0,-,N/A,,Overcast,300,2013-11-02 02:55:00
10:15 PM,45.0,41.7,88,29.99,10.0,WNW,17.3,-,N/A,,Mostly Cloudy,300,2013-11-02 03:15:00
10:35 PM,45.7,41.9,87,29.99,10.0,WNW,17.3,26.5,N/A,,Overcast,300,2013-11-02 03:35:00
10:55 PM,45.7,41.9,87,30.00,10.0,WNW,13.8,20.7,N/A,,Overcast,300,2013-11-02 03:55:00
11:15 PM,45.5,41.2,85,30.00,10.0,NW,16.1,-,N/A,,Overcast,310,2013-11-02 04:15:00
11:35 PM,45.1,40.6,84,30.01,10.0,NW,19.6,25.3,N/A,,Overcast,310,2013-11-02 04:35:00
11:55 PM,44.1,39.4,84,30.01,10.0,NW,17.3,25.3,N/A,,Scattered Clouds,310,2013-11-02 04:55:00